createdAt,value
2024-02-09T00:02:22.468Z,2.86
2024-02-09T00:04:53.284Z,2.86
2024-02-09T00:07:27.015Z,2.85
2024-02-09T00:09:57.739Z,2.85
2024-02-09T00:12:28.455Z,2.84
2024-02-09T00:15:00.954Z,2.84
2024-02-09T00:17:34.959Z,2.84
2024-02-09T00:20:09.224Z,2.83
2024-02-09T00:22:40.679Z,2.82
2024-02-09T00:25:12.776Z,2.82
2024-02-09T00:27:44.857Z,2.78
2024-02-09T00:30:15.853Z,2.78
2024-02-09T00:32:49.252Z,2.77
2024-02-09T00:35:21.671Z,2.75
2024-02-09T00:37:57.171Z,2.73
2024-02-09T00:40:33.125Z,2.71
2024-02-09T00:43:05.463Z,2.72
2024-02-09T00:45:38.139Z,2.66
2024-02-09T00:48:11.915Z,2.71
2024-02-09T00:50:42.530Z,2.73
2024-02-09T00:53:13.190Z,2.74
2024-02-09T00:55:44.035Z,2.73
2024-02-09T00:58:15.165Z,2.69
2024-02-09T01:00:45.794Z,2.66
2024-02-09T01:03:21.744Z,2.63
2024-02-09T01:05:52.544Z,2.61
2024-02-09T01:08:24.401Z,2.61
2024-02-09T01:10:56.099Z,2.58
2024-02-09T01:13:39.161Z,2.59
2024-02-09T01:16:22.676Z,2.57
2024-02-09T01:19:09.409Z,2.57
2024-02-09T01:21:52.359Z,2.56
2024-02-09T01:24:35.333Z,2.52
2024-02-09T01:27:18.321Z,2.50
2024-02-09T01:30:01.336Z,2.46
2024-02-09T01:32:46.705Z,2.41
2024-02-09T01:35:32.365Z,2.35
2024-02-09T01:38:15.435Z,2.31
2024-02-09T01:40:58.445Z,2.30
2024-02-09T01:43:41.483Z,2.28
2024-02-09T01:46:25.555Z,2.27
2024-02-09T01:49:08.803Z,2.26
2024-02-09T01:51:55.054Z,2.22
2024-02-09T01:54:38.649Z,2.20
2024-02-09T01:57:24.119Z,2.18
2024-02-09T02:00:10.185Z,2.17
2024-02-09T02:02:58.860Z,2.17
2024-02-09T02:05:42.487Z,2.19
2024-02-09T02:08:29.476Z,2.19
2024-02-09T02:11:12.264Z,2.19
2024-02-09T02:13:55.269Z,2.16
2024-02-09T02:16:38.579Z,2.14
2024-02-09T02:19:21.882Z,2.11
2024-02-09T02:22:14.042Z,2.11
2024-02-09T02:25:05.988Z,2.09
2024-02-09T02:27:55.216Z,2.07
2024-02-09T02:30:38.211Z,2.07
2024-02-09T02:33:21.563Z,2.06
2024-02-09T02:36:04.570Z,2.07
2024-02-09T02:38:47.618Z,2.06
2024-02-09T02:41:18.013Z,2.04
2024-02-09T02:43:46.268Z,2.03
2024-02-09T02:46:20.048Z,2.03
2024-02-09T02:49:04.082Z,1.99
2024-02-09T02:51:47.318Z,2.03
2024-02-09T02:54:32.281Z,2.01
2024-02-09T02:57:18.965Z,1.98
2024-02-09T03:00:04.647Z,1.92
2024-02-09T03:02:48.191Z,1.88
2024-02-09T03:05:21.722Z,1.86
2024-02-09T03:08:43.096Z,1.86
2024-02-09T03:10:45.249Z,1.88
2024-02-09T03:13:18.551Z,1.90
2024-02-09T03:15:49.540Z,1.92
2024-02-09T03:18:23.030Z,1.94
2024-02-09T03:20:56.840Z,1.92
2024-02-09T03:23:27.708Z,1.90
2024-02-09T03:25:58.390Z,1.89
2024-02-09T03:28:31.696Z,1.89
2024-02-09T03:31:03.664Z,1.89
2024-02-09T03:33:34.318Z,1.86
2024-02-09T03:36:06.715Z,1.86
2024-02-09T03:38:37.365Z,1.88
2024-02-09T03:41:09.005Z,1.90
2024-02-09T03:43:42.352Z,1.93
2024-02-09T03:46:13.927Z,1.95
2024-02-09T03:48:44.604Z,1.98
2024-02-09T03:51:15.351Z,2.01
2024-02-09T03:53:46.019Z,2.02
2024-02-09T03:56:16.900Z,2.03
2024-02-09T03:58:50.184Z,2.03
2024-02-09T04:01:21.139Z,2.03
2024-02-09T04:03:51.931Z,2.01
2024-02-09T04:06:26.055Z,2.06
2024-02-09T04:08:57.735Z,2.07
2024-02-09T04:11:30.203Z,2.09
2024-02-09T04:14:03.508Z,2.10
2024-02-09T04:16:34.180Z,2.08
2024-02-09T04:19:05.215Z,2.07
2024-02-09T04:21:35.891Z,2.07
2024-02-09T04:24:06.939Z,2.04
2024-02-09T04:26:38.349Z,2.02
2024-02-09T04:29:11.627Z,2.00
2024-02-09T04:31:43.607Z,1.95
2024-02-09T04:34:15.518Z,1.89
2024-02-09T04:36:47.687Z,1.84
2024-02-09T04:39:20.542Z,1.81
2024-02-09T04:41:54.092Z,1.79
2024-02-09T04:44:27.642Z,1.75
2024-02-09T04:46:58.493Z,1.73
2024-02-09T04:49:29.412Z,1.70
2024-02-09T04:52:00.260Z,1.69
2024-02-09T04:54:31.332Z,1.66
2024-02-09T04:57:01.985Z,1.64
2024-02-09T04:59:35.236Z,1.62
2024-02-09T05:02:06.040Z,1.60
2024-02-09T05:04:36.846Z,1.58
2024-02-09T05:07:08.041Z,1.56
2024-02-09T05:09:39.191Z,1.57
2024-02-09T05:12:11.059Z,1.56
2024-02-09T05:14:45.278Z,1.56
2024-02-09T05:17:16.031Z,1.56
2024-02-09T05:19:46.907Z,1.56
2024-02-09T05:22:17.676Z,1.60
2024-02-09T05:24:48.869Z,1.61
2024-02-09T05:27:19.766Z,1.64
2024-02-09T05:29:53.933Z,1.67
2024-02-09T05:32:26.484Z,1.71
2024-02-09T05:34:59.245Z,1.75
2024-02-09T05:37:30.176Z,1.76
2024-02-09T05:40:02.637Z,1.78
2024-02-09T05:42:35.225Z,1.78
2024-02-09T05:45:09.160Z,1.79
2024-02-09T05:47:39.998Z,1.80
2024-02-09T05:50:13.655Z,1.80
2024-02-09T05:52:46.910Z,1.79
2024-02-09T05:55:17.705Z,1.79
2024-02-09T05:57:49.322Z,1.79
2024-02-09T06:00:23.388Z,1.80
2024-02-09T06:02:55.025Z,1.81
2024-02-09T06:05:25.979Z,1.86
2024-02-09T06:07:56.757Z,1.89
2024-02-09T06:10:27.474Z,1.94
2024-02-09T06:12:58.386Z,2.02
2024-02-09T06:15:31.799Z,2.10
2024-02-09T06:18:04.032Z,2.20
2024-02-09T06:20:35.253Z,2.30
2024-02-09T06:23:06.360Z,2.43
2024-02-09T06:25:38.040Z,2.56
2024-02-09T06:28:08.967Z,2.70
2024-02-09T06:30:42.353Z,2.83
2024-02-09T06:33:13.317Z,2.96
2024-02-09T06:35:44.069Z,3.14
2024-02-09T06:38:15.507Z,3.33
2024-02-09T06:40:46.195Z,3.53
2024-02-09T06:43:19.729Z,3.77
2024-02-09T06:45:53.254Z,4.03
2024-02-09T06:48:26.008Z,4.27
2024-02-09T06:50:57.982Z,4.53
2024-02-09T06:53:28.616Z,4.81
2024-02-09T06:56:01.772Z,5.09
2024-02-09T06:58:32.527Z,5.38
2024-02-09T07:01:11.297Z,5.66
2024-02-09T07:03:42.033Z,5.93
2024-02-09T07:06:12.808Z,6.17
2024-02-09T07:08:52.035Z,6.45
2024-02-09T07:11:22.849Z,6.67
2024-02-09T07:13:53.530Z,7.04
2024-02-09T07:16:26.847Z,7.32
2024-02-09T07:18:57.598Z,7.63
2024-02-09T07:21:28.316Z,7.95
2024-02-09T07:24:03.338Z,8.25
2024-02-09T07:26:36.675Z,8.59
2024-02-09T07:29:07.432Z,8.92
2024-02-09T07:31:40.832Z,9.29
2024-02-09T07:34:13.787Z,9.67
2024-02-09T07:36:45.594Z,9.98
2024-02-09T07:39:16.247Z,10.25
2024-02-09T07:41:47.038Z,10.47
2024-02-09T07:44:17.919Z,10.74
2024-02-09T07:46:51.254Z,10.92
2024-02-09T07:49:22.319Z,11.08
2024-02-09T07:51:53.092Z,11.26
2024-02-09T07:54:24.638Z,11.46
2024-02-09T07:56:55.267Z,11.69
2024-02-09T07:59:26.018Z,11.94
2024-02-09T08:01:59.983Z,12.22
2024-02-09T08:04:33.552Z,12.50
2024-02-09T08:07:04.423Z,12.80
2024-02-09T08:09:35.176Z,13.10
2024-02-09T08:12:05.861Z,13.41
2024-02-09T08:14:38.435Z,13.72
2024-02-09T08:17:12.610Z,13.99
2024-02-09T08:19:43.367Z,14.25
2024-02-09T08:22:14.236Z,14.53
2024-02-09T08:24:44.924Z,14.86
2024-02-09T08:27:15.646Z,15.19
2024-02-09T08:29:46.280Z,15.48
2024-02-09T08:32:19.487Z,15.65
2024-02-09T08:34:50.222Z,15.92
2024-02-09T08:37:21.117Z,16.13
2024-02-09T08:39:51.846Z,16.31
2024-02-09T08:42:23.120Z,16.56
2024-02-09T08:44:53.872Z,16.85
2024-02-09T08:47:27.274Z,17.12
2024-02-09T08:49:58.152Z,17.37
2024-02-09T08:52:28.886Z,17.59
2024-02-09T08:55:01.546Z,17.75
2024-02-09T08:57:35.842Z,17.87
2024-02-09T09:00:08.882Z,17.98
2024-02-09T09:02:42.373Z,18.08
2024-02-09T09:05:13.151Z,18.15
2024-02-09T09:07:43.869Z,18.18
2024-02-09T09:10:14.599Z,18.21
2024-02-09T09:12:45.398Z,18.26
2024-02-09T09:15:17.860Z,18.31
2024-02-09T09:17:53.125Z,18.38
2024-02-09T09:20:23.968Z,18.40
2024-02-09T09:22:56.801Z,18.39
2024-02-09T09:25:27.549Z,18.32
2024-02-09T09:27:58.290Z,18.20
2024-02-09T09:30:30.668Z,18.00
2024-02-09T09:33:05.550Z,17.76
2024-02-09T09:35:36.213Z,17.51
2024-02-09T09:38:08.939Z,17.34
2024-02-09T09:40:43.689Z,17.17
2024-02-09T09:43:18.597Z,17.09
2024-02-09T09:45:58.018Z,17.02
2024-02-09T09:48:31.479Z,16.98
2024-02-09T09:51:03.754Z,16.94
2024-02-09T09:53:41.865Z,16.90
2024-02-09T09:56:13.451Z,16.86
2024-02-09T09:58:44.730Z,16.83
2024-02-09T10:01:18.081Z,16.84
2024-02-09T10:03:53.533Z,16.90
2024-02-09T10:06:25.574Z,16.96
2024-02-09T10:08:56.401Z,17.04
2024-02-09T10:11:28.158Z,17.07
2024-02-09T10:13:58.848Z,17.09
2024-02-09T10:16:29.619Z,17.07
2024-02-09T10:19:03.392Z,17.00
2024-02-09T10:21:37.807Z,16.94
2024-02-09T10:24:13.223Z,16.93
2024-02-09T10:26:44.570Z,16.95
2024-02-09T10:29:16.431Z,16.99
2024-02-09T10:31:49.082Z,17.03
2024-02-09T10:34:22.516Z,17.05
2024-02-09T10:36:53.542Z,17.11
2024-02-09T10:39:24.227Z,17.20
2024-02-09T10:41:57.713Z,17.32
2024-02-09T10:44:34.116Z,17.46
2024-02-09T10:47:05.826Z,17.62
2024-02-09T10:49:42.627Z,17.82
2024-02-09T10:52:14.248Z,17.97
2024-02-09T10:54:52.290Z,18.10
2024-02-09T10:57:24.541Z,18.17
2024-02-09T10:59:55.331Z,18.21
2024-02-09T11:02:26.743Z,18.24
2024-02-09T11:05:00.948Z,18.24
2024-02-09T11:07:36.395Z,18.25
2024-02-09T11:10:10.010Z,18.24
2024-02-09T11:12:40.637Z,18.39
2024-02-09T11:15:19.901Z,18.43
2024-02-09T11:17:51.649Z,18.55
2024-02-09T11:20:25.292Z,18.66
2024-02-09T11:23:01.790Z,18.76
2024-02-09T11:25:37.168Z,18.86
2024-02-09T11:28:11.123Z,18.96
2024-02-09T11:30:42.950Z,19.05
2024-02-09T11:33:16.388Z,19.07
2024-02-09T11:35:54.169Z,19.03
2024-02-09T11:38:25.578Z,18.97
2024-02-09T11:40:58.683Z,18.90
2024-02-09T11:43:30.857Z,18.83
2024-02-09T11:46:04.564Z,18.75
2024-02-09T11:48:35.349Z,18.65
2024-02-09T11:51:08.966Z,18.62
2024-02-09T11:53:39.677Z,18.61
2024-02-09T11:56:11.018Z,18.63
2024-02-09T11:58:45.295Z,18.60
2024-02-09T12:01:16.066Z,18.60
2024-02-09T12:03:46.973Z,18.60
2024-02-09T12:06:22.966Z,18.60
2024-02-09T12:08:55.083Z,18.65
2024-02-09T12:11:25.723Z,18.73
2024-02-09T12:13:56.564Z,18.80
2024-02-09T12:16:27.319Z,18.85
2024-02-09T12:18:59.827Z,18.88
2024-02-09T12:21:33.389Z,18.86
2024-02-09T12:24:04.208Z,18.82
2024-02-09T12:26:39.623Z,18.73
2024-02-09T12:29:17.073Z,18.67
2024-02-09T12:31:52.257Z,18.62
2024-02-09T12:34:23.103Z,18.59
2024-02-09T12:37:00.912Z,18.56
2024-02-09T12:39:31.831Z,18.60
2024-02-09T12:42:03.725Z,18.61
2024-02-09T12:44:34.688Z,18.57
2024-02-09T12:47:06.975Z,18.51
2024-02-09T12:49:38.844Z,18.45
2024-02-09T12:52:15.941Z,18.39
2024-02-09T12:54:46.845Z,18.28
2024-02-09T12:57:17.674Z,18.27
2024-02-09T12:59:48.309Z,18.18
2024-02-09T13:02:21.578Z,18.09
2024-02-09T13:04:52.424Z,17.97
2024-02-09T13:07:25.763Z,17.90
2024-02-09T13:09:56.895Z,17.83
2024-02-09T13:12:30.200Z,17.76
2024-02-09T13:15:03.213Z,17.70
2024-02-09T13:17:36.885Z,17.63
2024-02-09T13:20:10.740Z,17.57
2024-02-09T13:22:44.214Z,17.52
2024-02-09T13:25:17.931Z,17.48
2024-02-09T13:27:51.509Z,17.43
2024-02-09T13:30:22.176Z,17.41
2024-02-09T13:32:52.985Z,17.36
2024-02-09T13:39:00.133Z,17.27
2024-02-09T13:41:35.353Z,17.25
2024-02-09T13:44:06.788Z,17.26
2024-02-09T13:46:37.513Z,17.24
2024-02-09T13:49:08.316Z,17.25
2024-02-09T13:51:39.206Z,17.26
2024-02-09T13:57:19.845Z,17.25
2024-02-09T13:59:51.400Z,17.24
2024-02-09T14:02:22.370Z,17.23
2024-02-09T14:04:53.154Z,17.21
2024-02-09T14:07:24.188Z,17.21
2024-02-09T14:09:56.862Z,17.20
2024-02-09T14:12:30.102Z,17.19
2024-02-09T14:15:02.680Z,17.17
2024-02-09T14:17:39.570Z,17.16
2024-02-09T14:20:11.704Z,17.15
2024-02-09T14:22:43.115Z,17.12
2024-02-09T14:25:14.632Z,17.11
2024-02-09T14:27:48.227Z,17.10
2024-02-09T14:30:19.885Z,17.08
2024-02-09T14:32:50.569Z,17.03
2024-02-09T14:35:21.541Z,16.97
2024-02-09T14:37:52.624Z,16.90
2024-02-09T14:40:24.096Z,16.79
2024-02-09T14:42:57.489Z,16.70
2024-02-09T14:45:28.777Z,16.56
2024-02-09T14:47:59.867Z,16.48
2024-02-09T14:50:31.083Z,16.39
2024-02-09T14:53:01.702Z,16.29
2024-02-09T14:55:32.498Z,16.21
2024-02-09T14:58:05.902Z,16.12
2024-02-09T15:00:38.035Z,16.05
2024-02-09T15:03:09.050Z,15.95
2024-02-09T15:05:41.882Z,15.89
2024-02-09T15:08:14.229Z,15.81
2024-02-09T15:10:46.560Z,15.74
2024-02-09T15:13:19.936Z,15.67
2024-02-09T15:15:51.287Z,15.61
2024-02-09T15:18:22.369Z,15.54
2024-02-09T15:20:53.128Z,15.48
2024-02-09T15:23:26.430Z,15.42
2024-02-09T15:25:57.145Z,15.37
2024-02-09T15:28:30.482Z,15.30
2024-02-09T15:31:01.611Z,15.24
2024-02-09T15:33:33.571Z,15.14
2024-02-09T15:36:04.484Z,15.13
2024-02-09T15:38:35.470Z,15.06
2024-02-09T15:41:06.562Z,15.01
2024-02-09T15:43:39.972Z,14.94
2024-02-09T15:46:17.537Z,14.83
2024-02-09T15:48:51.968Z,14.83
2024-02-09T15:51:24.859Z,14.74
2024-02-09T15:53:58.695Z,14.65
2024-02-09T15:56:34.130Z,14.57
2024-02-09T15:59:09.738Z,14.48
2024-02-09T16:01:41.764Z,14.40
2024-02-09T16:04:13.158Z,14.30
2024-02-09T16:06:44.236Z,14.20
2024-02-09T16:09:14.865Z,14.10
2024-02-09T16:11:47.854Z,13.99
2024-02-09T16:14:21.142Z,13.88
2024-02-09T16:16:51.775Z,13.77
2024-02-09T16:19:24.361Z,13.67
2024-02-09T16:21:56.295Z,13.56
2024-02-09T16:24:26.933Z,13.47
2024-02-09T16:26:57.603Z,13.38
2024-02-09T16:29:30.809Z,13.28
2024-02-09T16:32:01.505Z,13.16
2024-02-09T16:34:32.484Z,13.03
2024-02-09T16:37:06.268Z,12.91
2024-02-09T16:39:37.720Z,12.78
2024-02-09T16:42:08.702Z,12.67
2024-02-09T16:44:42.517Z,12.54
2024-02-09T16:47:14.290Z,12.20
2024-02-09T16:49:45.642Z,11.31
2024-02-09T16:52:16.583Z,10.17
2024-02-09T16:54:50.656Z,9.11
2024-02-09T16:57:24.304Z,8.28
2024-02-09T16:59:58.209Z,7.56
2024-02-09T17:02:29.477Z,7.13
2024-02-09T17:05:00.969Z,6.84
2024-02-09T17:07:34.527Z,6.67
2024-02-09T17:10:06.177Z,6.62
2024-02-09T17:12:40.533Z,6.65
2024-02-09T17:15:17.420Z,6.76
2024-02-09T17:17:48.931Z,6.91
2024-02-09T17:20:20.450Z,7.07
2024-02-09T17:22:52.813Z,7.21
2024-02-09T17:25:24.245Z,7.25
2024-02-09T17:27:55.835Z,7.14
2024-02-09T17:30:29.803Z,6.89
2024-02-09T17:33:01.518Z,6.70
2024-02-09T17:35:32.683Z,6.57
2024-02-09T17:38:03.896Z,6.48
2024-02-09T17:40:35.101Z,6.51
2024-02-09T17:43:06.051Z,6.86
2024-02-09T18:28:42.363Z,9.63
2024-02-09T18:31:14.902Z,9.67
2024-02-09T18:33:47.862Z,9.74
2024-02-09T18:36:18.835Z,9.78
2024-02-09T18:38:50.280Z,9.81
2024-02-09T18:41:21.180Z,9.86
2024-02-09T18:43:54.838Z,9.88
2024-02-09T18:58:48.048Z,9.75
2024-02-09T19:01:39.701Z,9.71
2024-02-09T19:04:22.293Z,9.68
2024-02-09T19:06:57.934Z,9.65
2024-02-09T19:30:18.223Z,8.05
2024-02-09T19:32:49.148Z,8.01
2024-02-09T19:35:20.304Z,8.09
2024-02-09T19:37:52.206Z,8.35
2024-02-09T19:40:23.581Z,8.65
2024-02-09T19:42:54.722Z,8.94
2024-02-09T19:45:28.457Z,9.21
2024-02-09T19:48:01.460Z,9.29
2024-02-09T19:50:32.314Z,9.42
2024-02-09T19:53:03.104Z,9.59
2024-02-09T19:55:39.538Z,9.57
2024-02-09T19:58:12.279Z,9.61
2024-02-09T20:00:45.761Z,9.69
2024-02-09T20:03:16.918Z,9.60
2024-02-09T20:05:50.778Z,9.56
2024-02-09T20:08:22.164Z,9.68
2024-02-09T20:10:54.245Z,9.83
2024-02-09T20:13:25.418Z,9.94
2024-02-09T20:16:04.611Z,9.80
2024-02-09T20:18:36.209Z,9.42
2024-02-09T20:21:07.272Z,9.09
2024-02-09T20:23:38.830Z,9.03
2024-02-09T20:26:09.742Z,8.94
2024-02-09T20:28:40.692Z,8.91
2024-02-09T20:31:16.179Z,8.80
2024-02-09T20:33:48.320Z,8.77
2024-02-09T20:36:19.478Z,8.69
2024-02-09T20:38:50.359Z,8.53
2024-02-09T20:41:21.302Z,8.34
2024-02-09T20:43:52.448Z,8.40
2024-02-09T20:46:27.141Z,8.45
2024-02-09T20:48:58.012Z,8.54
2024-02-09T20:51:28.866Z,8.52
2024-02-09T20:54:03.235Z,8.24
2024-02-09T20:56:34.286Z,7.90
2024-02-09T20:59:07.357Z,7.84
2024-02-09T21:01:42.172Z,7.78
2024-02-09T21:04:13.139Z,7.82
2024-02-09T21:06:44.155Z,7.77
2024-02-09T21:12:20.914Z,7.47
2024-02-09T21:14:51.807Z,7.54
2024-02-09T21:17:26.744Z,7.63
2024-02-09T21:19:57.734Z,7.80
2024-02-09T21:22:28.627Z,7.90
2024-02-09T21:24:59.823Z,7.82
2024-02-09T21:27:33.835Z,7.71
2024-02-09T21:30:08.878Z,7.80
2024-02-09T21:32:42.357Z,7.90
2024-02-09T21:35:14.851Z,7.95
2024-02-09T21:37:46.321Z,8.13
2024-02-09T21:40:17.405Z,8.20
2024-02-09T21:42:50.408Z,8.18
2024-02-09T21:45:23.399Z,7.95
2024-02-09T21:47:57.156Z,7.71
2024-02-09T21:50:28.006Z,7.70
2024-02-09T21:52:59.781Z,7.74
2024-02-09T21:55:30.940Z,7.66
2024-02-09T21:58:02.833Z,7.67
2024-02-09T22:00:35.253Z,7.72
2024-02-09T22:03:08.929Z,7.66
2024-02-09T22:05:40.325Z,7.70
2024-02-09T22:08:11.350Z,7.74
2024-02-09T22:10:42.760Z,7.66
2024-02-09T22:13:13.562Z,7.49
2024-02-09T22:15:46.229Z,7.45
2024-02-09T22:18:19.675Z,7.56
2024-02-09T22:20:59.842Z,7.67
2024-02-09T22:23:35.617Z,7.80
2024-02-09T22:26:08.632Z,7.89
2024-02-09T22:28:40.284Z,8.05
2024-02-09T22:31:15.636Z,7.96
2024-02-09T22:33:49.131Z,7.74
2024-02-09T22:36:20.800Z,7.48
2024-02-09T22:38:51.593Z,7.48
2024-02-09T22:41:22.380Z,7.47
2024-02-09T22:43:55.136Z,7.36
2024-02-09T22:46:27.356Z,7.40
2024-02-09T22:49:02.021Z,7.46
2024-02-09T22:51:32.770Z,7.56
2024-02-09T22:54:03.945Z,7.62
2024-02-09T22:56:35.240Z,7.65
2024-02-09T22:59:06.241Z,7.69
2024-02-09T23:01:37.079Z,7.60
2024-02-09T23:04:10.644Z,7.39
2024-02-09T23:06:41.421Z,7.17
2024-02-09T23:09:12.177Z,7.20
2024-02-09T23:11:43.049Z,7.23
2024-02-09T23:14:20.362Z,7.12
2024-02-09T23:16:54.747Z,7.04
2024-02-09T23:19:29.518Z,7.13
2024-02-09T23:22:02.371Z,7.24
2024-02-09T23:24:33.037Z,7.36
2024-02-09T23:27:07.048Z,7.34
2024-02-09T23:29:40.869Z,7.16
2024-02-09T23:35:32.568Z,6.83
2024-02-09T23:38:04.822Z,6.79
2024-02-09T23:40:35.730Z,6.41
2024-02-09T23:43:06.988Z,5.87
2024-02-09T23:45:39.659Z,5.45
2024-02-09T23:48:11.193Z,5.15
2024-02-09T23:50:45.003Z,4.96
2024-02-09T23:53:17.939Z,4.97
2024-02-09T23:55:52.677Z,5.00
2024-02-09T23:58:23.599Z,5.00
